sensor_id;sensor_type;location;lat;lon;timestamp;pressure;altitude;pressure_sealevel;temperature;humidity
73628;BME280;61923;51.846;5.856;2022-12-17T00:02:38;102139.66;;;10.71;64.91
73628;BME280;61923;51.846;5.856;2022-12-17T00:05:22;102144.84;;;10.71;64.84
73628;BME280;61923;51.846;5.856;2022-12-17T00:08:06;102150.88;;;10.71;65.26
73628;BME280;61923;51.846;5.856;2022-12-17T00:10:49;102142.25;;;10.71;64.91
73628;BME280;61923;51.846;5.856;2022-12-17T00:13:33;102139.72;;;10.69;64.51
73628;BME280;61923;51.846;5.856;2022-12-17T00:16:17;102131.03;;;10.70;64.78
73628;BME280;61923;51.846;5.856;2022-12-17T00:19:02;102131.84;;;10.71;64.87
73628;BME280;61923;51.846;5.856;2022-12-17T00:21:45;102139.56;;;10.72;64.73
73628;BME280;61923;51.846;5.856;2022-12-17T00:24:29;102136.84;;;10.74;64.70
73628;BME280;61923;51.846;5.856;2022-12-17T00:27:13;102132.59;;;10.73;64.89
73628;BME280;61923;51.846;5.856;2022-12-17T00:29:57;102144.63;;;10.74;65.22
73628;BME280;61923;51.846;5.856;2022-12-17T00:32:41;102142.03;;;10.74;65.08
73628;BME280;61923;51.846;5.856;2022-12-17T00:35:25;102154.22;;;10.73;65.19
73628;BME280;61923;51.846;5.856;2022-12-17T00:38:14;102150.03;;;10.71;65.25
73628;BME280;61923;51.846;5.856;2022-12-17T00:40:58;102162.94;;;10.72;65.11
73628;BME280;61923;51.846;5.856;2022-12-17T00:43:42;102170.63;;;10.74;65.79
73628;BME280;61923;51.846;5.856;2022-12-17T00:46:26;102163.03;;;10.71;65.21
73628;BME280;61923;51.846;5.856;2022-12-17T00:49:10;102170.63;;;10.74;65.58
73628;BME280;61923;51.846;5.856;2022-12-17T00:51:54;102168.03;;;10.74;64.99
73628;BME280;61923;51.846;5.856;2022-12-17T00:54:38;102172.47;;;10.72;65.26
73628;BME280;61923;51.846;5.856;2022-12-17T00:57:22;102170.63;;;10.74;65.05
73628;BME280;61923;51.846;5.856;2022-12-17T01:00:07;102169.78;;;10.73;65.33
73628;BME280;61923;51.846;5.856;2022-12-17T01:02:51;102164.50;;;10.75;65.03
73628;BME280;61923;51.846;5.856;2022-12-17T01:05:35;102167.19;;;10.73;65.93
73628;BME280;61923;51.846;5.856;2022-12-17T01:08:19;102169.88;;;10.72;65.23
73628;BME280;61923;51.846;5.856;2022-12-17T01:11:05;102182.78;;;10.73;65.41
73628;BME280;61923;51.846;5.856;2022-12-17T01:13:51;102185.38;;;10.73;65.46
73628;BME280;61923;51.846;5.856;2022-12-17T01:16:35;102193.09;;;10.75;65.65
73628;BME280;61923;51.846;5.856;2022-12-17T01:19:20;102182.78;;;10.73;65.41
73628;BME280;61923;51.846;5.856;2022-12-17T01:22:04;102188.81;;;10.74;65.45
73628;BME280;61923;51.846;5.856;2022-12-17T01:24:48;102199.13;;;10.75;65.47
73628;BME280;61923;51.846;5.856;2022-12-17T01:27:32;102196.72;;;10.72;65.72
73628;BME280;61923;51.846;5.856;2022-12-17T01:30:16;102202.66;;;10.74;65.62
73628;BME280;61923;51.846;5.856;2022-12-17T01:33:06;102203.47;;;10.75;65.60
73628;BME280;61923;51.846;5.856;2022-12-17T01:35:57;102213.06;;;10.74;66.03
73628;BME280;61923;51.846;5.856;2022-12-17T01:38:41;102213.88;;;10.75;65.70
73628;BME280;61923;51.846;5.856;2022-12-17T01:41:26;102221.84;;;10.72;65.61
73628;BME280;61923;51.846;5.856;2022-12-17T01:47:23;102213.31;;;10.70;66.08
73628;BME280;61923;51.846;5.856;2022-12-17T01:50:08;102214.06;;;10.72;65.77
73628;BME280;61923;51.846;5.856;2022-12-17T01:52:54;102227.69;;;10.75;65.83
73628;BME280;61923;51.846;5.856;2022-12-17T01:55:40;102221.69;;;10.75;66.49
73628;BME280;61923;51.846;5.856;2022-12-17T01:58:24;102226.88;;;10.75;66.06
73628;BME280;61923;51.846;5.856;2022-12-17T02:01:08;102226.97;;;10.73;66.36
73628;BME280;61923;51.846;5.856;2022-12-17T02:03:53;102221.75;;;10.73;66.07
73628;BME280;61923;51.846;5.856;2022-12-17T02:06:40;102228.66;;;10.74;66.09
73628;BME280;61923;51.846;5.856;2022-12-17T02:09:44;102233.09;;;10.72;65.97
73628;BME280;61923;51.846;5.856;2022-12-17T02:12:44;102234.00;;;10.71;65.85
73628;BME280;61923;51.846;5.856;2022-12-17T02:15:36;102234.75;;;10.73;65.88
73628;BME280;61923;51.846;5.856;2022-12-17T02:18:30;102231.41;;;10.71;66.22
73628;BME280;61923;51.846;5.856;2022-12-17T02:21:18;102235.69;;;10.72;66.84
73628;BME280;61923;51.846;5.856;2022-12-17T02:24:54;102238.28;;;10.72;65.91
73628;BME280;61923;51.846;5.856;2022-12-17T02:27:10;102235.59;;;10.74;66.51
73628;BME280;61923;51.846;5.856;2022-12-17T02:30:00;102231.50;;;10.70;66.16
73628;BME280;61923;51.846;5.856;2022-12-17T02:32:46;102226.31;;;10.70;66.58
73628;BME280;61923;51.846;5.856;2022-12-17T02:35:36;102235.69;;;10.72;66.62
73628;BME280;61923;51.846;5.856;2022-12-17T02:38:27;102228.00;;;10.71;66.08
73628;BME280;61923;51.846;5.856;2022-12-17T02:41:18;102234.09;;;10.70;66.30
73628;BME280;61923;51.846;5.856;2022-12-17T02:44:05;102237.44;;;10.72;66.33
73628;BME280;61923;51.846;5.856;2022-12-17T02:46:53;102243.56;;;10.71;66.13
73628;BME280;61923;51.846;5.856;2022-12-17T02:49:37;102248.69;;;10.72;66.33
73628;BME280;61923;51.846;5.856;2022-12-17T02:52:21;102244.50;;;10.70;66.24
73628;BME280;61923;51.846;5.856;2022-12-17T02:55:06;102254.78;;;10.71;66.42
73628;BME280;61923;51.846;5.856;2022-12-17T02:57:50;102257.47;;;10.70;65.97
73628;BME280;61923;51.846;5.856;2022-12-17T03:00:34;102249.78;;;10.68;66.22
73628;BME280;61923;51.846;5.856;2022-12-17T03:03:18;102256.56;;;10.71;65.98
73628;BME280;61923;51.846;5.856;2022-12-17T03:06:02;102260.00;;;10.71;66.14
73628;BME280;61923;51.846;5.856;2022-12-17T03:08:46;102257.31;;;10.73;65.77
73628;BME280;61923;51.846;5.856;2022-12-17T03:11:30;102265.84;;;10.75;66.37
73628;BME280;61923;51.846;5.856;2022-12-17T03:14:14;102264.16;;;10.74;66.07
73628;BME280;61923;51.846;5.856;2022-12-17T03:16:58;102262.50;;;10.73;65.90
73628;BME280;61923;51.846;5.856;2022-12-17T03:19:43;102265.03;;;10.74;66.32
73628;BME280;61923;51.846;5.856;2022-12-17T03:22:46;102265.03;;;10.74;66.15
73628;BME280;61923;51.846;5.856;2022-12-17T03:25:30;102271.88;;;10.75;66.51
73628;BME280;61923;51.846;5.856;2022-12-17T03:28:14;102276.25;;;10.75;66.51
73628;BME280;61923;51.846;5.856;2022-12-17T03:30:59;102272.69;;;10.76;66.73
73628;BME280;61923;51.846;5.856;2022-12-17T03:33:43;102275.31;;;10.76;67.02
73628;BME280;61923;51.846;5.856;2022-12-17T03:36:27;102277.91;;;10.76;66.40
73628;BME280;61923;51.846;5.856;2022-12-17T03:39:11;102277.91;;;10.76;66.32
73628;BME280;61923;51.846;5.856;2022-12-17T03:42:04;102281.34;;;10.76;66.43
73628;BME280;61923;51.846;5.856;2022-12-17T03:44:48;102283.94;;;10.76;66.67
73628;BME280;61923;51.846;5.856;2022-12-17T03:47:32;102277.91;;;10.76;66.44
73628;BME280;61923;51.846;5.856;2022-12-17T03:50:16;102281.34;;;10.76;66.52
73628;BME280;61923;51.846;5.856;2022-12-17T03:53:03;102275.31;;;10.76;66.71
73628;BME280;61923;51.846;5.856;2022-12-17T03:58:42;102273.66;;;10.75;66.42
73628;BME280;61923;51.846;5.856;2022-12-17T04:01:26;102271.03;;;10.75;66.58
73628;BME280;61923;51.846;5.856;2022-12-17T04:04:09;102266.88;;;10.72;66.55
73628;BME280;61923;51.846;5.856;2022-12-17T04:06:53;102271.03;;;10.75;66.34
73628;BME280;61923;51.846;5.856;2022-12-17T04:09:37;102282.28;;;10.75;66.96
73628;BME280;61923;51.846;5.856;2022-12-17T04:12:21;102281.44;;;10.75;66.34
73628;BME280;61923;51.846;5.856;2022-12-17T04:15:05;102284.94;;;10.74;67.03
73628;BME280;61923;51.846;5.856;2022-12-17T04:17:49;102279.13;;;10.70;66.35
73628;BME280;61923;51.846;5.856;2022-12-17T04:20:33;102288.56;;;10.71;66.78
73628;BME280;61923;51.846;5.856;2022-12-17T04:23:17;102289.41;;;10.72;66.56
73628;BME280;61923;51.846;5.856;2022-12-17T04:26:02;102292.00;;;10.72;66.73
73628;BME280;61923;51.846;5.856;2022-12-17T04:28:46;102288.50;;;10.73;66.32
73628;BME280;61923;51.846;5.856;2022-12-17T04:31:30;102287.56;;;10.74;67.09
73628;BME280;61923;51.846;5.856;2022-12-17T04:34:14;102297.19;;;10.72;66.62
73628;BME280;61923;51.846;5.856;2022-12-17T04:36:58;102306.75;;;10.71;66.97
73628;BME280;61923;51.846;5.856;2022-12-17T04:39:42;102307.59;;;10.72;66.75
73628;BME280;61923;51.846;5.856;2022-12-17T04:42:26;102311.13;;;10.71;66.34
73628;BME280;61923;51.846;5.856;2022-12-17T04:45:09;102315.38;;;10.72;66.15
73628;BME280;61923;51.846;5.856;2022-12-17T04:48:04;102324.22;;;10.69;66.47
73628;BME280;61923;51.846;5.856;2022-12-17T04:50:48;102315.50;;;10.70;66.67
73628;BME280;61923;51.846;5.856;2022-12-17T04:53:32;102330.31;;;10.68;66.06
73628;BME280;61923;51.846;5.856;2022-12-17T04:56:16;102332.00;;;10.69;66.73
73628;BME280;61923;51.846;5.856;2022-12-17T04:59:00;102325.03;;;10.70;66.52
73628;BME280;61923;51.846;5.856;2022-12-17T05:01:44;102329.41;;;10.69;66.56
73628;BME280;61923;51.846;5.856;2022-12-17T05:04:28;102325.03;;;10.70;66.73
73628;BME280;61923;51.846;5.856;2022-12-17T05:07:12;102320.69;;;10.70;67.05
73628;BME280;61923;51.846;5.856;2022-12-17T05:09:56;102319.84;;;10.70;66.82
73628;BME280;61923;51.846;5.856;2022-12-17T05:12:40;102313.72;;;10.71;66.38
73628;BME280;61923;51.846;5.856;2022-12-17T05:15:24;102318.09;;;10.70;66.73
73628;BME280;61923;51.846;5.856;2022-12-17T05:18:08;102316.34;;;10.71;66.92
73628;BME280;61923;51.846;5.856;2022-12-17T05:20:52;102313.72;;;10.71;66.78
73628;BME280;61923;51.846;5.856;2022-12-17T05:23:35;102318.00;;;10.72;66.53
73628;BME280;61923;51.846;5.856;2022-12-17T05:26:24;102314.66;;;10.70;66.92
73628;BME280;61923;51.846;5.856;2022-12-17T05:29:08;102317.25;;;10.70;66.98
73628;BME280;61923;51.846;5.856;2022-12-17T05:31:52;102322.44;;;10.70;66.82
73628;BME280;61923;51.846;5.856;2022-12-17T05:34:36;102320.78;;;10.69;66.56
73628;BME280;61923;51.846;5.856;2022-12-17T05:37:20;102320.78;;;10.69;67.47
73628;BME280;61923;51.846;5.856;2022-12-17T05:40:05;102323.31;;;10.70;66.99
73628;BME280;61923;51.846;5.856;2022-12-17T05:42:58;102321.53;;;10.71;66.43
73628;BME280;61923;51.846;5.856;2022-12-17T05:45:42;102316.41;;;10.69;66.78
73628;BME280;61923;51.846;5.856;2022-12-17T05:48:27;102318.34;;;10.66;66.67
73628;BME280;61923;51.846;5.856;2022-12-17T05:51:11;102326.06;;;10.67;66.59
73628;BME280;61923;51.846;5.856;2022-12-17T05:53:55;102329.50;;;10.68;66.43
73628;BME280;61923;51.846;5.856;2022-12-17T05:56:39;102327.63;;;10.70;66.30
73628;BME280;61923;51.846;5.856;2022-12-17T05:59:23;102328.50;;;10.70;66.41
73628;BME280;61923;51.846;5.856;2022-12-17T06:02:07;102320.69;;;10.70;66.71
73628;BME280;61923;51.846;5.856;2022-12-17T06:04:51;102334.53;;;10.71;66.50
73628;BME280;61923;51.846;5.856;2022-12-17T06:07:34;102338.78;;;10.72;66.16
73628;BME280;61923;51.846;5.856;2022-12-17T06:10:18;102336.91;;;10.74;65.97
73628;BME280;61923;51.846;5.856;2022-12-17T06:13:02;102341.28;;;10.73;66.41
73628;BME280;61923;51.846;5.856;2022-12-17T06:15:50;102342.13;;;10.74;66.57
73628;BME280;61923;51.846;5.856;2022-12-17T06:18:35;102348.19;;;10.74;66.36
73628;BME280;61923;51.846;5.856;2022-12-17T06:21:19;102355.09;;;10.74;66.62
73628;BME280;61923;51.846;5.856;2022-12-17T06:24:04;102358.56;;;10.74;66.63
73628;BME280;61923;51.846;5.856;2022-12-17T06:26:48;102360.31;;;10.74;66.83
73628;BME280;61923;51.846;5.856;2022-12-17T06:29:32;102355.84;;;10.76;66.64
73628;BME280;61923;51.846;5.856;2022-12-17T06:32:16;102354.13;;;10.76;66.78
73628;BME280;61923;51.846;5.856;2022-12-17T06:35:00;102351.53;;;10.76;66.12
73628;BME280;61923;51.846;5.856;2022-12-17T06:37:44;102363.28;;;10.82;66.22
73628;BME280;61923;51.846;5.856;2022-12-17T06:40:28;102357.34;;;10.80;66.65
73628;BME280;61923;51.846;5.856;2022-12-17T06:43:11;102369.44;;;10.81;66.20
73628;BME280;61923;51.846;5.856;2022-12-17T06:45:55;102363.41;;;10.81;66.90
73628;BME280;61923;51.846;5.856;2022-12-17T06:48:39;102365.25;;;10.79;66.14
73628;BME280;61923;51.846;5.856;2022-12-17T06:51:24;102371.28;;;10.79;66.69
73628;BME280;61923;51.846;5.856;2022-12-17T06:54:08;102369.50;;;10.80;66.77
73628;BME280;61923;51.846;5.856;2022-12-17T06:56:52;102369.59;;;10.78;66.90
73628;BME280;61923;51.846;5.856;2022-12-17T06:59:36;102381.66;;;10.79;65.90
73628;BME280;61923;51.846;5.856;2022-12-17T07:02:20;102379.06;;;10.79;65.75
73628;BME280;61923;51.846;5.856;2022-12-17T07:05:04;102375.53;;;10.80;66.04
73628;BME280;61923;51.846;5.856;2022-12-17T07:07:48;102384.28;;;10.79;66.17
73628;BME280;61923;51.846;5.856;2022-12-17T07:10:32;102380.84;;;10.79;66.39
73628;BME280;61923;51.846;5.856;2022-12-17T07:13:16;102389.47;;;10.79;66.19
73628;BME280;61923;51.846;5.856;2022-12-17T07:16:00;102392.97;;;10.78;66.10
73628;BME280;61923;51.846;5.856;2022-12-17T07:18:44;102395.69;;;10.76;66.37
73628;BME280;61923;51.846;5.856;2022-12-17T07:21:28;102392.16;;;10.77;66.08
73628;BME280;61923;51.846;5.856;2022-12-17T07:24:12;102404.31;;;10.77;66.07
73628;BME280;61923;51.846;5.856;2022-12-17T07:26:56;102407.00;;;10.75;66.33
73628;BME280;61923;51.846;5.856;2022-12-17T07:29:40;102411.38;;;10.75;65.94
73628;BME280;61923;51.846;5.856;2022-12-17T07:32:24;102413.03;;;10.76;65.72
73628;BME280;61923;51.846;5.856;2022-12-17T07:35:08;102416.47;;;10.76;66.50
73628;BME280;61923;51.846;5.856;2022-12-17T07:37:59;102416.56;;;10.75;65.73
73628;BME280;61923;51.846;5.856;2022-12-17T07:40:44;102419.09;;;10.76;66.00
73628;BME280;61923;51.846;5.856;2022-12-17T07:43:28;102423.41;;;10.76;66.12
73628;BME280;61923;51.846;5.856;2022-12-17T07:46:12;102427.69;;;10.77;66.36
73628;BME280;61923;51.846;5.856;2022-12-17T07:48:58;102427.88;;;10.74;66.05
73628;BME280;61923;51.846;5.856;2022-12-17T07:51:43;102429.72;;;10.72;66.43
73628;BME280;61923;51.846;5.856;2022-12-17T07:54:26;102433.94;;;10.74;65.78
73628;BME280;61923;51.846;5.856;2022-12-17T07:57:11;102446.06;;;10.74;66.65
73628;BME280;61923;51.846;5.856;2022-12-17T07:59:55;102465.09;;;10.74;65.69
73628;BME280;61923;51.846;5.856;2022-12-17T08:02:39;102457.19;;;10.76;65.67
73628;BME280;61923;51.846;5.856;2022-12-17T08:05:23;102458.97;;;10.75;66.24
73628;BME280;61923;51.846;5.856;2022-12-17T08:08:11;102451.25;;;10.74;66.07
73628;BME280;61923;51.846;5.856;2022-12-17T08:10:55;102450.34;;;10.75;66.47
73628;BME280;61923;51.846;5.856;2022-12-17T08:13:39;102468.53;;;10.75;65.61
73628;BME280;61923;51.846;5.856;2022-12-17T08:16:43;102467.72;;;10.74;65.26
73628;BME280;61923;51.846;5.856;2022-12-17T08:19:47;102455.53;;;10.75;66.45
73628;BME280;61923;51.846;5.856;2022-12-17T08:22:31;102458.97;;;10.75;66.03
73628;BME280;61923;51.846;5.856;2022-12-17T08:25:20;102471.13;;;10.75;66.41
73628;BME280;61923;51.846;5.856;2022-12-17T08:28:04;102472.91;;;10.74;66.23
73628;BME280;61923;51.846;5.856;2022-12-17T08:30:49;102478.94;;;10.75;65.67
73628;BME280;61923;51.846;5.856;2022-12-17T08:33:33;102477.44;;;10.71;65.40
73628;BME280;61923;51.846;5.856;2022-12-17T08:36:17;102487.63;;;10.74;65.94
73628;BME280;61923;51.846;5.856;2022-12-17T08:39:01;102484.59;;;10.82;65.59
73628;BME280;61923;51.846;5.856;2022-12-17T08:41:45;102483.59;;;10.84;65.29
73628;BME280;61923;51.846;5.856;2022-12-17T08:44:29;102493.97;;;10.84;65.45
73628;BME280;61923;51.846;5.856;2022-12-17T08:47:13;102492.31;;;10.83;65.22
73628;BME280;61923;51.846;5.856;2022-12-17T08:49:57;102493.06;;;10.85;65.08
73628;BME280;61923;51.846;5.856;2022-12-17T08:52:41;102499.19;;;10.84;64.88
73628;BME280;61923;51.846;5.856;2022-12-17T08:55:25;102493.81;;;10.87;64.84
73628;BME280;61923;51.846;5.856;2022-12-17T08:58:09;102490.31;;;10.88;64.57
73628;BME280;61923;51.846;5.856;2022-12-17T09:00:52;102494.56;;;10.89;64.83
73628;BME280;61923;51.846;5.856;2022-12-17T09:03:36;102497.00;;;10.92;64.87
73628;BME280;61923;51.846;5.856;2022-12-17T09:06:20;102502.00;;;10.95;65.11
73628;BME280;61923;51.846;5.856;2022-12-17T09:09:04;102503.84;;;10.93;65.16
73628;BME280;61923;51.846;5.856;2022-12-17T09:11:48;102500.34;;;10.94;65.30
73628;BME280;61923;51.846;5.856;2022-12-17T09:14:32;102504.13;;;10.89;64.91
73628;BME280;61923;51.846;5.856;2022-12-17T09:17:16;102512.50;;;10.94;65.19
73628;BME280;61923;51.846;5.856;2022-12-17T09:20:00;102512.50;;;10.94;65.18
73628;BME280;61923;51.846;5.856;2022-12-17T09:22:44;102508.22;;;10.93;65.51
73628;BME280;61923;51.846;5.856;2022-12-17T09:25:28;102521.16;;;10.94;65.53
73628;BME280;61923;51.846;5.856;2022-12-17T09:28:12;102523.00;;;10.92;65.05
73628;BME280;61923;51.846;5.856;2022-12-17T09:30:59;102531.53;;;10.94;65.14
73628;BME280;61923;51.846;5.856;2022-12-17T09:33:44;102540.25;;;10.93;64.84
73628;BME280;61923;51.846;5.856;2022-12-17T09:36:28;102536.75;;;10.94;64.70
73628;BME280;61923;51.846;5.856;2022-12-17T09:39:12;102524.94;;;10.89;64.91
73628;BME280;61923;51.846;5.856;2022-12-17T09:45:05;102525.41;;;10.95;64.37
73628;BME280;61923;51.846;5.856;2022-12-17T09:48:12;102535.63;;;10.99;64.13
73628;BME280;61923;51.846;5.856;2022-12-17T09:51:00;102530.44;;;10.99;64.35
73628;BME280;61923;51.846;5.856;2022-12-17T09:53:49;102530.25;;;11.02;64.54
73628;BME280;61923;51.846;5.856;2022-12-17T09:56:35;102535.16;;;11.06;64.30
73628;BME280;61923;51.846;5.856;2022-12-17T09:59:23;102535.00;;;11.09;64.75
73628;BME280;61923;51.846;5.856;2022-12-17T10:02:15;102529.06;;;11.07;64.37
73628;BME280;61923;51.846;5.856;2022-12-17T10:05:03;102540.22;;;11.09;64.71
73628;BME280;61923;51.846;5.856;2022-12-17T10:07:49;102541.03;;;11.10;65.19
73628;BME280;61923;51.846;5.856;2022-12-17T10:10:35;102548.84;;;11.10;64.47
73628;BME280;61923;51.846;5.856;2022-12-17T10:13:22;102543.63;;;11.10;64.42
73628;BME280;61923;51.846;5.856;2022-12-17T10:16:18;102551.38;;;11.11;63.87
73628;BME280;61923;51.846;5.856;2022-12-17T10:19:04;102552.31;;;11.10;64.27
73628;BME280;61923;51.846;5.856;2022-12-17T10:21:49;102547.94;;;11.11;64.11
73628;BME280;61923;51.846;5.856;2022-12-17T10:24:43;102549.44;;;11.15;63.67
73628;BME280;61923;51.846;5.856;2022-12-17T10:27:27;102556.28;;;11.16;63.59
73628;BME280;61923;51.846;5.856;2022-12-17T10:30:15;102561.50;;;11.16;63.71
73628;BME280;61923;51.846;5.856;2022-12-17T10:33:04;102559.81;;;11.15;64.22
73628;BME280;61923;51.846;5.856;2022-12-17T10:35:49;102555.47;;;11.15;64.34
73628;BME280;61923;51.846;5.856;2022-12-17T10:38:33;102557.22;;;11.15;64.14
73628;BME280;61923;51.846;5.856;2022-12-17T10:41:28;102564.19;;;11.14;63.85
73628;BME280;61923;51.846;5.856;2022-12-17T10:44:33;102553.97;;;11.11;64.23
73628;BME280;61923;51.846;5.856;2022-12-17T10:47:22;102562.50;;;11.13;64.27
73628;BME280;61923;51.846;5.856;2022-12-17T10:50:18;102559.16;;;11.11;63.94
73628;BME280;61923;51.846;5.856;2022-12-17T10:53:04;102562.50;;;11.13;64.09
73628;BME280;61923;51.846;5.856;2022-12-17T10:55:59;102561.69;;;11.13;64.58
73628;BME280;61923;51.846;5.856;2022-12-17T10:58:48;102559.09;;;11.13;64.12
73628;BME280;61923;51.846;5.856;2022-12-17T11:01:33;102560.94;;;11.11;64.03
73628;BME280;61923;51.846;5.856;2022-12-17T11:04:30;102565.19;;;11.12;63.74
73628;BME280;61923;51.846;5.856;2022-12-17T11:07:19;102560.75;;;11.14;63.37
73628;BME280;61923;51.846;5.856;2022-12-17T11:10:05;102557.97;;;11.17;63.54
73628;BME280;61923;51.846;5.856;2022-12-17T11:12:58;102550.91;;;11.19;63.05
73628;BME280;61923;51.846;5.856;2022-12-17T11:15:48;102559.47;;;11.21;63.26
73628;BME280;61923;51.846;5.856;2022-12-17T11:18:39;102560.38;;;11.20;63.62
73628;BME280;61923;51.846;5.856;2022-12-17T11:21:35;102547.38;;;11.20;62.84
73628;BME280;61923;51.846;5.856;2022-12-17T11:24:28;102554.28;;;11.21;62.80
73628;BME280;61923;51.846;5.856;2022-12-17T11:27:17;102551.47;;;11.24;63.09
73628;BME280;61923;51.846;5.856;2022-12-17T11:30:21;102548.88;;;11.24;62.74
73628;BME280;61923;51.846;5.856;2022-12-17T11:33:21;102547.38;;;11.20;62.91
73628;BME280;61923;51.846;5.856;2022-12-17T11:36:15;102536.91;;;11.22;62.92
73628;BME280;61923;51.846;5.856;2022-12-17T11:42:10;102540.44;;;11.21;63.21
73628;BME280;61923;51.846;5.856;2022-12-17T11:45:05;102549.97;;;11.20;62.95
73628;BME280;61923;51.846;5.856;2022-12-17T11:48:06;102548.31;;;11.19;63.46
73628;BME280;61923;51.846;5.856;2022-12-17T11:51:01;102547.38;;;11.20;63.09
73628;BME280;61923;51.846;5.856;2022-12-17T11:56:48;102552.78;;;11.17;62.94
73628;BME280;61923;51.846;5.856;2022-12-17T11:59:45;102544.97;;;11.17;62.99
73628;BME280;61923;51.846;5.856;2022-12-17T12:02:41;102547.50;;;11.19;63.20
73628;BME280;61923;51.846;5.856;2022-12-17T12:05:47;102545.06;;;11.15;63.62
73628;BME280;61923;51.846;5.856;2022-12-17T12:18:00;102525.00;;;11.18;63.22
73628;BME280;61923;51.846;5.856;2022-12-17T12:29:50;102538.00;;;11.18;62.76
73628;BME280;61923;51.846;5.856;2022-12-17T12:32:48;102526.09;;;11.13;62.94
73628;BME280;61923;51.846;5.856;2022-12-17T12:35:38;102525.94;;;11.16;63.23
73628;BME280;61923;51.846;5.856;2022-12-17T12:38:29;102543.41;;;11.14;62.90
73628;BME280;61923;51.846;5.856;2022-12-17T12:41:23;102549.44;;;11.15;62.96
73628;BME280;61923;51.846;5.856;2022-12-17T12:44:19;102546.91;;;11.13;62.73
73628;BME280;61923;51.846;5.856;2022-12-17T12:47:22;102546.91;;;11.13;63.58
73628;BME280;61923;51.846;5.856;2022-12-17T12:50:21;102546.16;;;11.11;62.67
73628;BME280;61923;51.846;5.856;2022-12-17T12:53:13;102547.09;;;11.10;63.25
73628;BME280;61923;51.846;5.856;2022-12-17T12:55:57;102549.78;;;11.09;63.67
73628;BME280;61923;51.846;5.856;2022-12-17T12:59:10;102545.41;;;11.09;64.25
73628;BME280;61923;51.846;5.856;2022-12-17T13:01:54;102542.06;;;11.07;64.02
73628;BME280;61923;51.846;5.856;2022-12-17T13:04:38;102532.69;;;11.05;64.31
73628;BME280;61923;51.846;5.856;2022-12-17T13:07:25;102545.56;;;11.06;63.75
73628;BME280;61923;51.846;5.856;2022-12-17T13:09:54;102550.78;;;11.06;64.38
73628;BME280;61923;51.846;5.856;2022-12-17T13:12:42;102551.63;;;11.07;63.50
73628;BME280;61923;51.846;5.856;2022-12-17T13:15:15;102541.22;;;11.07;63.91
73628;BME280;61923;51.846;5.856;2022-12-17T13:17:56;102536.03;;;11.07;63.52
73628;BME280;61923;51.846;5.856;2022-12-17T13:20:30;102535.16;;;11.06;63.37
73628;BME280;61923;51.846;5.856;2022-12-17T13:25:34;102542.16;;;11.06;64.13
73628;BME280;61923;51.846;5.856;2022-12-17T13:28:00;102536.19;;;11.04;63.46
73628;BME280;61923;51.846;5.856;2022-12-17T13:30:33;102532.69;;;11.05;63.55
73628;BME280;61923;51.846;5.856;2022-12-17T13:38:44;102522.63;;;10.99;64.31
73628;BME280;61923;51.846;5.856;2022-12-17T13:41:28;102527.84;;;10.99;63.86
73628;BME280;61923;51.846;5.856;2022-12-17T13:43:56;102527.72;;;11.00;63.43
73628;BME280;61923;51.846;5.856;2022-12-17T13:46:24;102522.53;;;11.00;64.59
73628;BME280;61923;51.846;5.856;2022-12-17T13:48:57;102530.31;;;11.00;63.47
73628;BME280;61923;51.846;5.856;2022-12-17T13:51:29;102523.47;;;10.99;64.13
73628;BME280;61923;51.846;5.856;2022-12-17T13:54:00;102532.19;;;10.98;64.20
73628;BME280;61923;51.846;5.856;2022-12-17T13:56:34;102528.75;;;10.98;64.64
73628;BME280;61923;51.846;5.856;2022-12-17T13:59:02;102532.28;;;10.96;63.79
73628;BME280;61923;51.846;5.856;2022-12-17T14:01:29;102532.28;;;10.96;64.04
73628;BME280;61923;51.846;5.856;2022-12-17T14:03:59;102541.00;;;10.95;63.12
73628;BME280;61923;51.846;5.856;2022-12-17T14:06:31;102532.38;;;10.95;63.76
73628;BME280;61923;51.846;5.856;2022-12-17T14:08:59;102539.34;;;10.94;63.79
73628;BME280;61923;51.846;5.856;2022-12-17T14:11:26;102535.88;;;10.94;64.24
73628;BME280;61923;51.846;5.856;2022-12-17T14:14:21;102548.25;;;10.90;62.68
73628;BME280;61923;51.846;5.856;2022-12-17T14:16:49;102548.25;;;10.90;63.27
73628;BME280;61923;51.846;5.856;2022-12-17T14:19:15;102548.25;;;10.90;63.69
73628;BME280;61923;51.846;5.856;2022-12-17T14:21:40;102550.84;;;10.90;62.96
73628;BME280;61923;51.846;5.856;2022-12-17T14:24:10;102555.94;;;10.92;63.29
73628;BME280;61923;51.846;5.856;2022-12-17T14:26:47;102558.63;;;10.90;62.50
73628;BME280;61923;51.846;5.856;2022-12-17T14:29:13;102555.19;;;10.90;63.61
73628;BME280;61923;51.846;5.856;2022-12-17T14:31:38;102558.72;;;10.89;63.96
73628;BME280;61923;51.846;5.856;2022-12-17T14:34:08;102559.53;;;10.89;63.20
73628;BME280;61923;51.846;5.856;2022-12-17T14:36:39;102568.28;;;10.88;62.92
73628;BME280;61923;51.846;5.856;2022-12-17T14:39:17;102570.03;;;10.88;62.62
73628;BME280;61923;51.846;5.856;2022-12-17T14:41:44;102575.28;;;10.86;62.54
73628;BME280;61923;51.846;5.856;2022-12-17T14:44:29;102575.28;;;10.86;62.70
73628;BME280;61923;51.846;5.856;2022-12-17T14:47:17;102580.50;;;10.86;62.49
73628;BME280;61923;51.846;5.856;2022-12-17T14:49:58;102582.34;;;10.84;62.40
73628;BME280;61923;51.846;5.856;2022-12-17T14:52:43;102571.94;;;10.84;62.29
73628;BME280;61923;51.846;5.856;2022-12-17T14:55:32;102580.69;;;10.83;62.40
73628;BME280;61923;51.846;5.856;2022-12-17T14:58:15;102581.50;;;10.84;62.21
73628;BME280;61923;51.846;5.856;2022-12-17T15:00:43;102573.78;;;10.82;62.68
73628;BME280;61923;51.846;5.856;2022-12-17T15:03:31;102575.66;;;10.80;61.94
73628;BME280;61923;51.846;5.856;2022-12-17T15:06:00;102577.34;;;10.81;62.76